createdAt,value
2022-10-16T00:02:36.387Z,84.19
2022-10-16T00:07:39.039Z,84.23
2022-10-16T00:12:43.005Z,84.30
2022-10-16T00:17:45.611Z,84.50
2022-10-16T00:22:48.217Z,84.70
2022-10-16T00:27:52.117Z,84.89
2022-10-16T00:32:54.840Z,84.83
2022-10-16T00:37:57.540Z,84.90
2022-10-16T00:43:01.519Z,84.80
2022-10-16T00:48:04.247Z,84.88
2022-10-16T00:53:06.941Z,84.94
2022-10-16T00:58:11.406Z,84.71
2022-10-16T01:03:29.743Z,84.66
2022-10-16T01:08:36.669Z,84.44
2022-10-16T01:13:43.624Z,84.43
2022-10-16T01:18:48.848Z,84.55
2022-10-16T01:23:57.089Z,84.59
2022-10-16T01:29:06.006Z,84.65
2022-10-16T01:34:14.983Z,84.71
2022-10-16T01:39:18.417Z,84.88
2022-10-16T01:44:24.387Z,84.88
2022-10-16T01:49:30.171Z,84.90
2022-10-16T01:54:34.478Z,84.94
2022-10-16T01:59:42.965Z,85.08
2022-10-16T02:04:48.731Z,85.12
2022-10-16T02:09:51.619Z,85.32
2022-10-16T02:14:55.857Z,85.50
2022-10-16T02:19:58.835Z,85.64
2022-10-16T02:25:05.236Z,85.71
2022-10-16T02:30:15.151Z,86.01
2022-10-16T02:35:19.591Z,86.01
2022-10-16T02:40:25.192Z,86.03
2022-10-16T02:45:30.148Z,86.08
2022-10-16T02:50:32.787Z,86.19
2022-10-16T02:55:35.428Z,86.35
2022-10-16T03:00:39.492Z,86.44
2022-10-16T03:05:42.150Z,86.71
2022-10-16T03:10:44.935Z,86.92
2022-10-16T03:15:49.426Z,86.96
2022-10-16T03:20:52.081Z,86.95
2022-10-16T03:25:55.037Z,86.99
2022-10-16T03:30:58.985Z,87.19
2022-10-16T03:36:01.786Z,87.27
2022-10-16T03:41:04.799Z,87.24
2022-10-16T03:46:08.797Z,87.46
2022-10-16T03:51:11.547Z,87.45
2022-10-16T03:56:14.180Z,87.50
2022-10-16T04:01:18.278Z,87.49
2022-10-16T04:06:20.875Z,87.56
2022-10-16T04:11:23.533Z,87.69
2022-10-16T04:16:27.535Z,87.87
2022-10-16T04:21:30.235Z,87.96
2022-10-16T04:26:33.822Z,87.93
2022-10-16T04:31:37.759Z,88.06
2022-10-16T04:36:40.334Z,88.06
2022-10-16T04:41:42.886Z,88.20
2022-10-16T04:46:46.812Z,88.21
2022-10-16T04:51:49.486Z,88.52
2022-10-16T04:56:52.919Z,88.53
2022-10-16T05:01:57.174Z,88.62
2022-10-16T05:06:59.791Z,88.65
2022-10-16T05:12:04.403Z,88.76
2022-10-16T05:17:08.374Z,88.80
2022-10-16T05:22:11.055Z,88.86
2022-10-16T05:27:19.674Z,88.81
2022-10-16T05:32:23.702Z,88.76
2022-10-16T05:37:26.509Z,88.76
2022-10-16T05:42:29.420Z,88.95
2022-10-16T05:47:34.267Z,88.83
2022-10-16T05:52:37.004Z,88.91
2022-10-16T05:57:39.685Z,88.76
2022-10-16T06:02:43.669Z,88.84
2022-10-16T06:07:46.260Z,88.63
2022-10-16T06:12:48.912Z,88.54
2022-10-16T06:17:52.876Z,88.35
2022-10-16T06:22:55.525Z,88.03
2022-10-16T06:27:58.163Z,88.11
2022-10-16T06:33:02.155Z,87.72
2022-10-16T06:38:04.816Z,87.59
2022-10-16T06:43:07.549Z,87.33
2022-10-16T06:48:11.598Z,87.39
2022-10-16T06:53:14.185Z,87.23
2022-10-16T06:58:16.841Z,87.23
2022-10-16T07:03:20.810Z,87.18
2022-10-16T07:08:23.399Z,87.02
2022-10-16T07:13:26.241Z,87.08
2022-10-16T07:23:34.111Z,87.09
2022-10-16T07:28:36.778Z,87.07
2022-10-16T07:33:42.811Z,86.96
2022-10-16T07:38:46.000Z,86.85
2022-10-16T07:43:49.198Z,86.83
2022-10-16T07:48:53.468Z,86.50
2022-10-16T07:53:56.250Z,86.33
2022-10-16T07:58:58.982Z,86.15
2022-10-16T08:04:02.977Z,85.81
2022-10-16T08:09:05.979Z,85.67
2022-10-16T08:14:08.682Z,85.84
2022-10-16T08:19:12.866Z,85.74
2022-10-16T08:24:15.519Z,85.74
2022-10-16T08:29:18.139Z,85.47
2022-10-16T08:34:22.094Z,85.12
2022-10-16T08:39:24.863Z,84.80
2022-10-16T08:44:37.070Z,84.62
2022-10-16T08:49:43.505Z,84.29
2022-10-16T08:54:49.417Z,83.94
2022-10-16T08:59:52.322Z,83.78
2022-10-16T09:05:04.456Z,83.50
2022-10-16T09:10:16.207Z,83.37
2022-10-16T09:15:25.796Z,83.58
2022-10-16T09:20:34.999Z,83.45
2022-10-16T09:25:40.452Z,83.69
2022-10-16T09:30:43.415Z,83.51
2022-10-16T09:35:49.187Z,83.35
2022-10-16T09:40:58.901Z,82.97
2022-10-16T09:46:07.763Z,82.78
2022-10-16T09:51:20.270Z,82.90
2022-10-16T09:56:25.279Z,83.00
2022-10-16T10:01:32.713Z,82.65
2022-10-16T10:06:39.001Z,82.05
2022-10-16T10:11:51.806Z,81.71
2022-10-16T10:17:03.381Z,81.55
2022-10-16T10:22:17.921Z,81.30
2022-10-16T10:27:20.790Z,81.39
2022-10-16T10:32:30.640Z,81.64
2022-10-16T10:37:45.721Z,81.75
2022-10-16T10:42:52.401Z,81.38
2022-10-16T10:48:05.162Z,81.66
2022-10-16T10:53:18.053Z,81.65
2022-10-16T10:58:59.338Z,81.23
2022-10-16T11:04:21.799Z,80.86
2022-10-16T11:09:28.177Z,80.50
2022-10-16T11:14:35.542Z,80.44
2022-10-16T11:19:43.865Z,80.23
2022-10-16T11:24:51.999Z,80.09
2022-10-16T11:29:58.748Z,80.20
2022-10-16T11:35:05.008Z,79.96
2022-10-16T11:40:21.338Z,80.07
2022-10-16T11:45:29.623Z,79.91
2022-10-16T11:50:36.910Z,80.04
2022-10-16T11:55:46.051Z,79.99
2022-10-16T12:00:55.507Z,79.72
2022-10-16T12:06:08.935Z,79.56
2022-10-16T12:11:25.674Z,79.65
2022-10-16T12:16:28.256Z,79.85
2022-10-16T12:21:32.623Z,79.21
2022-10-16T12:26:40.086Z,79.10
2022-10-16T12:31:57.292Z,79.32
2022-10-16T12:37:11.487Z,79.04
2022-10-16T12:42:25.873Z,78.33
2022-10-16T12:47:39.081Z,77.51
2022-10-16T12:52:41.955Z,76.20
2022-10-16T12:58:00.133Z,76.24
2022-10-16T13:03:35.377Z,76.18
2022-10-16T13:08:52.611Z,77.51
2022-10-16T13:14:17.083Z,77.83
2022-10-16T13:19:26.730Z,78.38
2022-10-16T13:24:44.332Z,78.32
2022-10-16T13:29:56.247Z,76.64
2022-10-16T13:34:59.284Z,77.13
2022-10-16T13:40:11.499Z,77.15
2022-10-16T13:45:21.242Z,77.61
2022-10-16T13:50:24.266Z,76.86
2022-10-16T13:55:27.146Z,77.11
2022-10-16T14:00:31.387Z,77.82
2022-10-16T14:05:34.390Z,77.81
2022-10-16T14:10:37.312Z,78.25
2022-10-16T14:15:41.563Z,78.36
2022-10-16T14:20:44.446Z,78.00
2022-10-16T14:25:47.145Z,77.73
2022-10-16T14:30:55.703Z,77.92
2022-10-16T14:36:04.131Z,77.75
2022-10-16T14:41:07.529Z,77.83
2022-10-16T14:46:15.233Z,78.44
2022-10-16T14:51:19.224Z,78.30
2022-10-16T14:56:23.404Z,78.64
2022-10-16T15:01:27.554Z,78.60
2022-10-16T15:06:30.394Z,79.36
2022-10-16T15:11:33.943Z,79.50
2022-10-16T15:16:38.243Z,78.95
2022-10-16T15:21:50.593Z,78.31
2022-10-16T15:26:53.241Z,78.66
2022-10-16T15:31:55.899Z,79.34
2022-10-16T15:37:00.786Z,80.01
2022-10-16T15:42:03.625Z,80.31
2022-10-16T15:47:06.536Z,80.19
2022-10-16T15:52:10.649Z,80.39
2022-10-16T15:57:13.266Z,80.38
2022-10-16T16:02:15.916Z,80.61
2022-10-16T16:07:20.185Z,80.38
2022-10-16T16:12:22.891Z,80.70
2022-10-16T16:17:25.741Z,81.13
2022-10-16T16:22:30.821Z,81.37
2022-10-16T16:27:35.322Z,81.49
2022-10-16T16:32:38.106Z,81.90
2022-10-16T16:37:42.058Z,81.94
2022-10-16T16:42:44.712Z,82.53
2022-10-16T16:47:47.370Z,82.90
2022-10-16T16:52:51.428Z,83.21
2022-10-16T16:57:54.468Z,83.29
2022-10-16T17:02:57.500Z,83.46
2022-10-16T17:08:01.471Z,84.00
2022-10-16T17:13:04.181Z,83.97
2022-10-16T17:18:06.950Z,84.31
2022-10-16T17:23:12.019Z,84.61
2022-10-16T17:28:15.358Z,84.58
2022-10-16T17:33:18.147Z,84.50
2022-10-16T17:38:22.784Z,84.80
2022-10-16T17:43:25.762Z,84.83
2022-10-16T17:48:28.606Z,85.05
2022-10-16T17:53:33.177Z,85.17
2022-10-16T17:58:36.053Z,85.14
2022-10-16T18:03:38.747Z,85.25
2022-10-16T18:08:42.688Z,85.22
2022-10-16T18:13:45.541Z,85.25
2022-10-16T18:18:48.294Z,85.42
2022-10-16T18:23:52.485Z,85.61
2022-10-16T18:28:56.812Z,85.56
2022-10-16T18:33:59.643Z,85.67
2022-10-16T18:39:09.151Z,85.78
2022-10-16T18:44:13.152Z,85.78
2022-10-16T18:49:15.843Z,86.08
2022-10-16T18:54:19.853Z,86.19
2022-10-16T18:59:22.588Z,86.33
2022-10-16T19:04:25.270Z,86.18
2022-10-16T19:09:29.349Z,86.20
2022-10-16T19:14:32.758Z,86.27
2022-10-16T19:19:35.929Z,86.45
2022-10-16T19:24:40.154Z,86.53
2022-10-16T19:29:42.970Z,86.62
2022-10-16T19:34:46.869Z,86.69
2022-10-16T19:39:51.687Z,86.53
2022-10-16T19:44:54.425Z,86.62
2022-10-16T19:49:57.060Z,87.04
2022-10-16T19:55:01.073Z,87.12
2022-10-16T20:00:05.045Z,86.88
2022-10-16T20:05:10.258Z,87.25
2022-10-16T20:10:14.247Z,87.29
2022-10-16T20:15:16.878Z,87.38
2022-10-16T20:20:19.559Z,87.31
2022-10-16T20:25:23.551Z,87.61
2022-10-16T20:30:26.201Z,87.61
2022-10-16T20:35:29.026Z,87.65
2022-10-16T20:40:35.273Z,87.78
2022-10-16T20:45:37.858Z,87.99
2022-10-16T20:50:41.004Z,88.02
2022-10-16T20:55:44.951Z,88.17
2022-10-16T21:00:47.526Z,88.35
2022-10-16T21:05:50.113Z,88.25
2022-10-16T21:10:54.129Z,88.33
2022-10-16T21:15:56.695Z,88.46
2022-10-16T21:20:59.382Z,88.57
2022-10-16T21:26:03.423Z,88.58
2022-10-16T21:31:12.857Z,88.47
2022-10-16T21:36:17.205Z,88.07
2022-10-16T21:41:22.875Z,87.96
2022-10-16T21:46:27.009Z,88.18
2022-10-16T21:51:31.135Z,87.96
2022-10-16T21:56:35.544Z,87.89
2022-10-16T22:01:38.185Z,87.77
2022-10-16T22:06:41.205Z,87.91
2022-10-16T22:11:45.740Z,87.78
2022-10-16T22:16:48.906Z,87.89
2022-10-16T22:21:54.531Z,88.02
2022-10-16T22:26:58.474Z,88.25
2022-10-16T22:32:01.238Z,88.47
2022-10-16T22:37:03.890Z,88.30
2022-10-16T22:42:08.150Z,87.96
2022-10-16T22:47:10.929Z,88.07
2022-10-16T22:52:15.198Z,88.22
2022-10-16T22:57:19.156Z,88.29
2022-10-16T23:02:21.804Z,88.38
2022-10-16T23:07:24.394Z,88.57
2022-10-16T23:12:28.780Z,88.94
2022-10-16T23:17:31.710Z,88.78
2022-10-16T23:22:34.330Z,88.63
2022-10-16T23:27:38.414Z,88.63
2022-10-16T23:32:41.600Z,88.73
2022-10-16T23:37:44.261Z,88.92
2022-10-16T23:42:48.229Z,88.93
2022-10-16T23:47:51.015Z,88.97
2022-10-16T23:52:53.696Z,89.06
2022-10-16T23:57:57.766Z,89.16
